sensor_id;sensor_type;location;lat;lon;timestamp;P1;durP1;ratioP1;P2;durP2;ratioP2
8831;SDS011;4452;50.756;4.472;2024-01-30T00:02:10;9.95;;;7.07;;
8831;SDS011;4452;50.756;4.472;2024-01-30T00:04:36;11.52;;;5.40;;
8831;SDS011;4452;50.756;4.472;2024-01-30T00:07:02;10.65;;;4.72;;
8831;SDS011;4452;50.756;4.472;2024-01-30T00:09:29;16.98;;;5.50;;
8831;SDS011;4452;50.756;4.472;2024-01-30T00:11:55;8.05;;;6.55;;
8831;SDS011;4452;50.756;4.472;2024-01-30T00:14:21;6.97;;;5.78;;
8831;SDS011;4452;50.756;4.472;2024-01-30T00:16:47;10.30;;;6.43;;
8831;SDS011;4452;50.756;4.472;2024-01-30T00:19:12;11.90;;;5.70;;
8831;SDS011;4452;50.756;4.472;2024-01-30T00:21:38;11.23;;;5.82;;
8831;SDS011;4452;50.756;4.472;2024-01-30T00:24:04;12.10;;;7.03;;
8831;SDS011;4452;50.756;4.472;2024-01-30T00:26:29;12.02;;;5.78;;
8831;SDS011;4452;50.756;4.472;2024-01-30T00:28:55;13.85;;;6.47;;
8831;SDS011;4452;50.756;4.472;2024-01-30T00:31:21;9.02;;;6.53;;
8831;SDS011;4452;50.756;4.472;2024-01-30T00:33:46;8.07;;;6.40;;
8831;SDS011;4452;50.756;4.472;2024-01-30T00:36:12;7.13;;;5.85;;
8831;SDS011;4452;50.756;4.472;2024-01-30T00:38:38;6.32;;;4.93;;
8831;SDS011;4452;50.756;4.472;2024-01-30T00:41:04;10.18;;;6.35;;
8831;SDS011;4452;50.756;4.472;2024-01-30T00:43:30;10.32;;;5.72;;
8831;SDS011;4452;50.756;4.472;2024-01-30T00:45:56;7.57;;;6.03;;
8831;SDS011;4452;50.756;4.472;2024-01-30T00:48:23;10.23;;;6.55;;
8831;SDS011;4452;50.756;4.472;2024-01-30T00:50:49;7.65;;;5.22;;
8831;SDS011;4452;50.756;4.472;2024-01-30T00:53:14;9.57;;;6.63;;
8831;SDS011;4452;50.756;4.472;2024-01-30T00:55:40;9.65;;;7.00;;
8831;SDS011;4452;50.756;4.472;2024-01-30T00:58:06;7.88;;;6.07;;
8831;SDS011;4452;50.756;4.472;2024-01-30T01:00:32;7.65;;;6.05;;
8831;SDS011;4452;50.756;4.472;2024-01-30T01:02:58;6.75;;;5.53;;
8831;SDS011;4452;50.756;4.472;2024-01-30T01:05:24;7.07;;;5.47;;
8831;SDS011;4452;50.756;4.472;2024-01-30T01:07:50;9.50;;;5.78;;
8831;SDS011;4452;50.756;4.472;2024-01-30T01:10:19;10.73;;;5.20;;
8831;SDS011;4452;50.756;4.472;2024-01-30T01:12:45;8.95;;;6.72;;
8831;SDS011;4452;50.756;4.472;2024-01-30T01:15:11;8.23;;;5.07;;
8831;SDS011;4452;50.756;4.472;2024-01-30T01:17:37;7.28;;;5.00;;
8831;SDS011;4452;50.756;4.472;2024-01-30T01:20:04;9.75;;;6.40;;
8831;SDS011;4452;50.756;4.472;2024-01-30T01:22:31;9.25;;;5.28;;
8831;SDS011;4452;50.756;4.472;2024-01-30T01:24:57;10.38;;;6.70;;
8831;SDS011;4452;50.756;4.472;2024-01-30T01:27:23;10.15;;;7.00;;
8831;SDS011;4452;50.756;4.472;2024-01-30T01:29:50;9.60;;;6.25;;
8831;SDS011;4452;50.756;4.472;2024-01-30T01:32:16;10.32;;;6.90;;
8831;SDS011;4452;50.756;4.472;2024-01-30T01:34:41;12.25;;;6.22;;
8831;SDS011;4452;50.756;4.472;2024-01-30T01:37:07;10.27;;;6.68;;
8831;SDS011;4452;50.756;4.472;2024-01-30T01:39:33;10.63;;;7.05;;
8831;SDS011;4452;50.756;4.472;2024-01-30T01:41:59;8.57;;;6.97;;
8831;SDS011;4452;50.756;4.472;2024-01-30T01:44:24;11.05;;;6.70;;
8831;SDS011;4452;50.756;4.472;2024-01-30T01:46:50;10.63;;;4.70;;
8831;SDS011;4452;50.756;4.472;2024-01-30T01:49:17;10.70;;;6.65;;
8831;SDS011;4452;50.756;4.472;2024-01-30T01:51:44;9.73;;;6.80;;
8831;SDS011;4452;50.756;4.472;2024-01-30T01:54:12;10.45;;;6.57;;
8831;SDS011;4452;50.756;4.472;2024-01-30T01:56:40;9.43;;;7.20;;
8831;SDS011;4452;50.756;4.472;2024-01-30T01:59:08;13.35;;;6.45;;
8831;SDS011;4452;50.756;4.472;2024-01-30T02:01:38;8.02;;;5.97;;
8831;SDS011;4452;50.756;4.472;2024-01-30T02:04:07;6.85;;;6.18;;
8831;SDS011;4452;50.756;4.472;2024-01-30T02:06:33;10.27;;;6.88;;
8831;SDS011;4452;50.756;4.472;2024-01-30T02:09:00;13.25;;;7.28;;
8831;SDS011;4452;50.756;4.472;2024-01-30T02:11:26;10.73;;;6.18;;
8831;SDS011;4452;50.756;4.472;2024-01-30T02:13:52;10.73;;;6.78;;
8831;SDS011;4452;50.756;4.472;2024-01-30T02:16:18;8.57;;;5.50;;
8831;SDS011;4452;50.756;4.472;2024-01-30T02:18:44;7.03;;;5.28;;
8831;SDS011;4452;50.756;4.472;2024-01-30T02:21:12;8.45;;;7.05;;
8831;SDS011;4452;50.756;4.472;2024-01-30T02:23:41;9.95;;;6.82;;
8831;SDS011;4452;50.756;4.472;2024-01-30T02:26:09;8.23;;;6.53;;
8831;SDS011;4452;50.756;4.472;2024-01-30T02:28:35;9.20;;;6.25;;
8831;SDS011;4452;50.756;4.472;2024-01-30T02:31:00;10.40;;;6.50;;
8831;SDS011;4452;50.756;4.472;2024-01-30T02:33:26;8.38;;;6.15;;
8831;SDS011;4452;50.756;4.472;2024-01-30T02:35:52;7.05;;;5.45;;
8831;SDS011;4452;50.756;4.472;2024-01-30T02:38:18;10.65;;;6.95;;
8831;SDS011;4452;50.756;4.472;2024-01-30T02:40:43;16.35;;;7.43;;
8831;SDS011;4452;50.756;4.472;2024-01-30T02:43:09;6.28;;;5.22;;
8831;SDS011;4452;50.756;4.472;2024-01-30T02:45:35;5.60;;;5.05;;
8831;SDS011;4452;50.756;4.472;2024-01-30T02:48:00;13.32;;;6.10;;
8831;SDS011;4452;50.756;4.472;2024-01-30T02:50:26;10.02;;;6.90;;
8831;SDS011;4452;50.756;4.472;2024-01-30T02:52:52;8.98;;;5.80;;
8831;SDS011;4452;50.756;4.472;2024-01-30T02:55:17;10.60;;;6.10;;
8831;SDS011;4452;50.756;4.472;2024-01-30T02:57:43;6.63;;;4.22;;
8831;SDS011;4452;50.756;4.472;2024-01-30T03:00:09;7.63;;;4.78;;
8831;SDS011;4452;50.756;4.472;2024-01-30T03:02:36;7.93;;;6.70;;
8831;SDS011;4452;50.756;4.472;2024-01-30T03:05:02;8.93;;;6.43;;
8831;SDS011;4452;50.756;4.472;2024-01-30T03:07:29;8.13;;;6.20;;
8831;SDS011;4452;50.756;4.472;2024-01-30T03:09:54;7.63;;;4.65;;
8831;SDS011;4452;50.756;4.472;2024-01-30T03:12:21;8.88;;;5.25;;
8831;SDS011;4452;50.756;4.472;2024-01-30T03:14:47;11.82;;;5.15;;
8831;SDS011;4452;50.756;4.472;2024-01-30T03:17:12;8.18;;;6.32;;
8831;SDS011;4452;50.756;4.472;2024-01-30T03:19:38;9.65;;;4.43;;
8831;SDS011;4452;50.756;4.472;2024-01-30T03:22:04;6.55;;;5.07;;
8831;SDS011;4452;50.756;4.472;2024-01-30T03:24:30;9.68;;;6.38;;
8831;SDS011;4452;50.756;4.472;2024-01-30T03:26:55;5.00;;;4.00;;
8831;SDS011;4452;50.756;4.472;2024-01-30T03:29:21;10.07;;;6.28;;
8831;SDS011;4452;50.756;4.472;2024-01-30T03:31:47;8.25;;;5.70;;
8831;SDS011;4452;50.756;4.472;2024-01-30T03:34:12;7.15;;;6.07;;
8831;SDS011;4452;50.756;4.472;2024-01-30T03:36:38;12.93;;;6.43;;
8831;SDS011;4452;50.756;4.472;2024-01-30T03:39:04;16.52;;;5.53;;
8831;SDS011;4452;50.756;4.472;2024-01-30T03:41:31;6.85;;;5.00;;
8831;SDS011;4452;50.756;4.472;2024-01-30T03:43:56;11.82;;;6.32;;
8831;SDS011;4452;50.756;4.472;2024-01-30T03:46:22;5.90;;;4.93;;
8831;SDS011;4452;50.756;4.472;2024-01-30T03:48:48;10.05;;;5.88;;
8831;SDS011;4452;50.756;4.472;2024-01-30T03:51:14;10.23;;;5.82;;
8831;SDS011;4452;50.756;4.472;2024-01-30T03:53:44;11.45;;;6.60;;
8831;SDS011;4452;50.756;4.472;2024-01-30T03:56:11;7.22;;;6.22;;
8831;SDS011;4452;50.756;4.472;2024-01-30T03:58:38;9.82;;;6.05;;
8831;SDS011;4452;50.756;4.472;2024-01-30T04:01:04;7.93;;;5.95;;
8831;SDS011;4452;50.756;4.472;2024-01-30T04:03:30;8.65;;;6.03;;
8831;SDS011;4452;50.756;4.472;2024-01-30T04:05:56;7.72;;;5.28;;
8831;SDS011;4452;50.756;4.472;2024-01-30T04:08:21;10.30;;;5.85;;
8831;SDS011;4452;50.756;4.472;2024-01-30T04:10:47;9.50;;;6.15;;
8831;SDS011;4452;50.756;4.472;2024-01-30T04:13:13;7.80;;;5.72;;
8831;SDS011;4452;50.756;4.472;2024-01-30T04:15:39;4.47;;;4.05;;
8831;SDS011;4452;50.756;4.472;2024-01-30T04:18:04;7.30;;;5.45;;
8831;SDS011;4452;50.756;4.472;2024-01-30T04:20:30;7.90;;;6.10;;
8831;SDS011;4452;50.756;4.472;2024-01-30T04:22:56;5.90;;;4.53;;
8831;SDS011;4452;50.756;4.472;2024-01-30T04:25:22;6.15;;;5.13;;
8831;SDS011;4452;50.756;4.472;2024-01-30T04:27:48;9.73;;;5.05;;
8831;SDS011;4452;50.756;4.472;2024-01-30T04:30:14;8.75;;;5.30;;
8831;SDS011;4452;50.756;4.472;2024-01-30T04:32:39;8.18;;;5.63;;
8831;SDS011;4452;50.756;4.472;2024-01-30T04:35:05;7.00;;;5.57;;
8831;SDS011;4452;50.756;4.472;2024-01-30T04:37:31;8.80;;;5.68;;
8831;SDS011;4452;50.756;4.472;2024-01-30T04:39:57;6.68;;;4.63;;
8831;SDS011;4452;50.756;4.472;2024-01-30T04:42:22;8.65;;;6.63;;
8831;SDS011;4452;50.756;4.472;2024-01-30T04:44:48;12.93;;;6.85;;
8831;SDS011;4452;50.756;4.472;2024-01-30T04:47:14;9.77;;;6.97;;
8831;SDS011;4452;50.756;4.472;2024-01-30T04:49:40;6.68;;;5.35;;
8831;SDS011;4452;50.756;4.472;2024-01-30T04:52:07;11.57;;;6.97;;
8831;SDS011;4452;50.756;4.472;2024-01-30T04:54:33;12.10;;;7.32;;
8831;SDS011;4452;50.756;4.472;2024-01-30T04:56:59;9.30;;;6.82;;
8831;SDS011;4452;50.756;4.472;2024-01-30T04:59:25;6.90;;;5.65;;
8831;SDS011;4452;50.756;4.472;2024-01-30T05:01:51;7.93;;;6.30;;
8831;SDS011;4452;50.756;4.472;2024-01-30T05:04:17;9.65;;;6.45;;
8831;SDS011;4452;50.756;4.472;2024-01-30T05:06:42;14.10;;;7.50;;
8831;SDS011;4452;50.756;4.472;2024-01-30T05:09:08;9.65;;;5.75;;
8831;SDS011;4452;50.756;4.472;2024-01-30T05:11:37;7.45;;;6.05;;
8831;SDS011;4452;50.756;4.472;2024-01-30T05:14:04;9.63;;;6.15;;
8831;SDS011;4452;50.756;4.472;2024-01-30T05:16:31;9.57;;;5.82;;
8831;SDS011;4452;50.756;4.472;2024-01-30T05:18:56;7.80;;;5.38;;
8831;SDS011;4452;50.756;4.472;2024-01-30T05:21:22;9.00;;;6.80;;
8831;SDS011;4452;50.756;4.472;2024-01-30T05:23:48;6.60;;;4.22;;
8831;SDS011;4452;50.756;4.472;2024-01-30T05:26:14;12.32;;;7.57;;
8831;SDS011;4452;50.756;4.472;2024-01-30T05:28:40;7.68;;;5.50;;
8831;SDS011;4452;50.756;4.472;2024-01-30T05:31:05;9.82;;;7.00;;
8831;SDS011;4452;50.756;4.472;2024-01-30T05:33:31;7.70;;;5.13;;
8831;SDS011;4452;50.756;4.472;2024-01-30T05:35:57;10.30;;;6.15;;
8831;SDS011;4452;50.756;4.472;2024-01-30T05:38:23;11.25;;;6.53;;
8831;SDS011;4452;50.756;4.472;2024-01-30T05:40:48;12.75;;;7.32;;
8831;SDS011;4452;50.756;4.472;2024-01-30T05:43:14;7.75;;;6.20;;
8831;SDS011;4452;50.756;4.472;2024-01-30T05:45:40;13.05;;;7.40;;
8831;SDS011;4452;50.756;4.472;2024-01-30T05:48:06;10.50;;;6.60;;
8831;SDS011;4452;50.756;4.472;2024-01-30T05:50:31;9.25;;;6.90;;
8831;SDS011;4452;50.756;4.472;2024-01-30T05:52:57;9.07;;;6.93;;
8831;SDS011;4452;50.756;4.472;2024-01-30T05:55:23;6.20;;;4.68;;
8831;SDS011;4452;50.756;4.472;2024-01-30T05:57:48;10.80;;;6.70;;
8831;SDS011;4452;50.756;4.472;2024-01-30T06:00:14;6.70;;;5.43;;
8831;SDS011;4452;50.756;4.472;2024-01-30T06:02:40;6.47;;;5.57;;
8831;SDS011;4452;50.756;4.472;2024-01-30T06:05:06;6.75;;;5.55;;
8831;SDS011;4452;50.756;4.472;2024-01-30T06:07:32;11.95;;;6.70;;
8831;SDS011;4452;50.756;4.472;2024-01-30T06:09:58;11.02;;;6.00;;
8831;SDS011;4452;50.756;4.472;2024-01-30T06:12:26;9.48;;;6.20;;
8831;SDS011;4452;50.756;4.472;2024-01-30T06:14:53;9.10;;;6.85;;
8831;SDS011;4452;50.756;4.472;2024-01-30T06:17:21;8.65;;;7.03;;
8831;SDS011;4452;50.756;4.472;2024-01-30T06:19:48;7.18;;;5.18;;
8831;SDS011;4452;50.756;4.472;2024-01-30T06:22:13;5.82;;;4.25;;
8831;SDS011;4452;50.756;4.472;2024-01-30T06:24:39;10.65;;;7.22;;
8831;SDS011;4452;50.756;4.472;2024-01-30T06:27:05;10.20;;;6.88;;
8831;SDS011;4452;50.756;4.472;2024-01-30T06:29:30;7.00;;;5.65;;
8831;SDS011;4452;50.756;4.472;2024-01-30T06:31:56;10.90;;;5.85;;
8831;SDS011;4452;50.756;4.472;2024-01-30T06:34:22;8.63;;;5.63;;
8831;SDS011;4452;50.756;4.472;2024-01-30T06:36:48;9.52;;;5.50;;
8831;SDS011;4452;50.756;4.472;2024-01-30T06:39:13;11.52;;;7.57;;
8831;SDS011;4452;50.756;4.472;2024-01-30T06:41:39;10.40;;;6.45;;
8831;SDS011;4452;50.756;4.472;2024-01-30T06:44:05;12.48;;;6.65;;
8831;SDS011;4452;50.756;4.472;2024-01-30T06:46:31;10.38;;;6.10;;
8831;SDS011;4452;50.756;4.472;2024-01-30T06:48:57;9.90;;;5.68;;
8831;SDS011;4452;50.756;4.472;2024-01-30T06:51:23;8.07;;;5.35;;
8831;SDS011;4452;50.756;4.472;2024-01-30T06:53:49;7.13;;;4.95;;
8831;SDS011;4452;50.756;4.472;2024-01-30T06:56:15;11.48;;;7.10;;
8831;SDS011;4452;50.756;4.472;2024-01-30T06:58:41;11.23;;;6.78;;
8831;SDS011;4452;50.756;4.472;2024-01-30T07:01:07;12.93;;;6.28;;
8831;SDS011;4452;50.756;4.472;2024-01-30T07:03:33;9.10;;;5.35;;
8831;SDS011;4452;50.756;4.472;2024-01-30T07:05:58;13.75;;;6.88;;
8831;SDS011;4452;50.756;4.472;2024-01-30T07:08:24;11.38;;;6.25;;
8831;SDS011;4452;50.756;4.472;2024-01-30T07:10:50;14.20;;;7.95;;
8831;SDS011;4452;50.756;4.472;2024-01-30T07:13:15;18.92;;;8.85;;
8831;SDS011;4452;50.756;4.472;2024-01-30T07:15:41;10.63;;;6.18;;
8831;SDS011;4452;50.756;4.472;2024-01-30T07:18:07;6.43;;;5.70;;
8831;SDS011;4452;50.756;4.472;2024-01-30T07:20:34;6.97;;;5.97;;
8831;SDS011;4452;50.756;4.472;2024-01-30T07:23:00;14.82;;;7.30;;
8831;SDS011;4452;50.756;4.472;2024-01-30T07:25:26;12.90;;;7.35;;
8831;SDS011;4452;50.756;4.472;2024-01-30T07:27:55;9.13;;;6.40;;
8831;SDS011;4452;50.756;4.472;2024-01-30T07:30:21;13.00;;;6.15;;
8831;SDS011;4452;50.756;4.472;2024-01-30T07:32:46;12.85;;;7.47;;
8831;SDS011;4452;50.756;4.472;2024-01-30T07:35:13;10.70;;;6.20;;
8831;SDS011;4452;50.756;4.472;2024-01-30T07:37:39;8.90;;;6.07;;
8831;SDS011;4452;50.756;4.472;2024-01-30T07:40:05;9.80;;;7.15;;
8831;SDS011;4452;50.756;4.472;2024-01-30T07:42:32;11.32;;;6.95;;
8831;SDS011;4452;50.756;4.472;2024-01-30T07:44:58;11.57;;;7.53;;
8831;SDS011;4452;50.756;4.472;2024-01-30T07:47:25;9.30;;;6.88;;
8831;SDS011;4452;50.756;4.472;2024-01-30T07:49:50;8.80;;;5.70;;
8831;SDS011;4452;50.756;4.472;2024-01-30T07:52:16;17.77;;;7.63;;
8831;SDS011;4452;50.756;4.472;2024-01-30T07:54:42;7.68;;;5.95;;
8831;SDS011;4452;50.756;4.472;2024-01-30T07:57:14;7.82;;;5.97;;
8831;SDS011;4452;50.756;4.472;2024-01-30T07:59:42;12.80;;;7.47;;
8831;SDS011;4452;50.756;4.472;2024-01-30T08:02:09;20.83;;;4.97;;
8831;SDS011;4452;50.756;4.472;2024-01-30T08:04:35;11.13;;;6.47;;
8831;SDS011;4452;50.756;4.472;2024-01-30T08:07:01;9.63;;;6.80;;
8831;SDS011;4452;50.756;4.472;2024-01-30T08:09:26;14.75;;;7.78;;
8831;SDS011;4452;50.756;4.472;2024-01-30T08:11:52;10.60;;;6.50;;
8831;SDS011;4452;50.756;4.472;2024-01-30T08:14:18;11.57;;;6.68;;
8831;SDS011;4452;50.756;4.472;2024-01-30T08:16:44;8.20;;;5.90;;
8831;SDS011;4452;50.756;4.472;2024-01-30T08:19:09;10.00;;;7.78;;
8831;SDS011;4452;50.756;4.472;2024-01-30T08:21:35;10.55;;;6.05;;
8831;SDS011;4452;50.756;4.472;2024-01-30T08:24:04;9.30;;;5.80;;
8831;SDS011;4452;50.756;4.472;2024-01-30T08:26:33;9.70;;;6.70;;
8831;SDS011;4452;50.756;4.472;2024-01-30T08:29:00;32.33;;;20.10;;
8831;SDS011;4452;50.756;4.472;2024-01-30T08:31:26;12.88;;;7.80;;
8831;SDS011;4452;50.756;4.472;2024-01-30T08:33:52;14.07;;;9.20;;
8831;SDS011;4452;50.756;4.472;2024-01-30T08:36:18;9.10;;;7.40;;
8831;SDS011;4452;50.756;4.472;2024-01-30T08:38:44;18.88;;;11.98;;
8831;SDS011;4452;50.756;4.472;2024-01-30T08:41:09;13.77;;;7.07;;
8831;SDS011;4452;50.756;4.472;2024-01-30T08:43:35;14.70;;;9.07;;
8831;SDS011;4452;50.756;4.472;2024-01-30T08:46:01;10.77;;;6.82;;
8831;SDS011;4452;50.756;4.472;2024-01-30T08:48:27;33.05;;;20.17;;
8831;SDS011;4452;50.756;4.472;2024-01-30T08:50:53;17.98;;;11.07;;
8831;SDS011;4452;50.756;4.472;2024-01-30T08:53:19;11.32;;;7.65;;
8831;SDS011;4452;50.756;4.472;2024-01-30T08:55:45;15.10;;;7.63;;
8831;SDS011;4452;50.756;4.472;2024-01-30T08:58:10;13.05;;;7.18;;
8831;SDS011;4452;50.756;4.472;2024-01-30T09:00:36;14.13;;;7.88;;
8831;SDS011;4452;50.756;4.472;2024-01-30T09:03:02;9.88;;;5.93;;
8831;SDS011;4452;50.756;4.472;2024-01-30T09:05:28;19.63;;;6.57;;
8831;SDS011;4452;50.756;4.472;2024-01-30T09:07:54;14.25;;;7.28;;
8831;SDS011;4452;50.756;4.472;2024-01-30T09:10:20;11.68;;;7.22;;
8831;SDS011;4452;50.756;4.472;2024-01-30T09:12:46;10.27;;;6.68;;
8831;SDS011;4452;50.756;4.472;2024-01-30T09:15:12;10.25;;;7.55;;
8831;SDS011;4452;50.756;4.472;2024-01-30T09:17:38;16.08;;;8.10;;
8831;SDS011;4452;50.756;4.472;2024-01-30T09:20:04;13.52;;;8.23;;
8831;SDS011;4452;50.756;4.472;2024-01-30T09:22:30;17.27;;;8.15;;
8831;SDS011;4452;50.756;4.472;2024-01-30T09:24:56;17.88;;;7.85;;
8831;SDS011;4452;50.756;4.472;2024-01-30T09:27:22;16.17;;;7.95;;
8831;SDS011;4452;50.756;4.472;2024-01-30T09:29:48;16.05;;;7.40;;
8831;SDS011;4452;50.756;4.472;2024-01-30T09:32:14;12.43;;;8.07;;
8831;SDS011;4452;50.756;4.472;2024-01-30T09:34:40;9.13;;;5.10;;
8831;SDS011;4452;50.756;4.472;2024-01-30T09:37:06;7.95;;;6.45;;
8831;SDS011;4452;50.756;4.472;2024-01-30T09:39:32;18.85;;;9.18;;
8831;SDS011;4452;50.756;4.472;2024-01-30T09:44:23;12.18;;;7.15;;
8831;SDS011;4452;50.756;4.472;2024-01-30T09:46:53;11.10;;;7.07;;
8831;SDS011;4452;50.756;4.472;2024-01-30T09:49:19;14.40;;;8.68;;
8831;SDS011;4452;50.756;4.472;2024-01-30T09:51:48;16.77;;;10.00;;
8831;SDS011;4452;50.756;4.472;2024-01-30T09:54:16;11.35;;;7.47;;
8831;SDS011;4452;50.756;4.472;2024-01-30T09:56:42;12.20;;;8.00;;
8831;SDS011;4452;50.756;4.472;2024-01-30T09:59:08;14.55;;;7.38;;
8831;SDS011;4452;50.756;4.472;2024-01-30T10:01:36;10.45;;;7.32;;
8831;SDS011;4452;50.756;4.472;2024-01-30T10:04:04;19.42;;;12.82;;
8831;SDS011;4452;50.756;4.472;2024-01-30T10:06:31;20.33;;;10.57;;
8831;SDS011;4452;50.756;4.472;2024-01-30T10:08:59;13.38;;;9.35;;
8831;SDS011;4452;50.756;4.472;2024-01-30T10:11:27;16.55;;;9.90;;
8831;SDS011;4452;50.756;4.472;2024-01-30T10:13:53;45.33;;;29.55;;
8831;SDS011;4452;50.756;4.472;2024-01-30T10:16:19;18.08;;;9.55;;
8831;SDS011;4452;50.756;4.472;2024-01-30T10:18:45;22.05;;;9.35;;
8831;SDS011;4452;50.756;4.472;2024-01-30T10:21:10;17.35;;;9.93;;
8831;SDS011;4452;50.756;4.472;2024-01-30T10:23:36;14.05;;;8.75;;
8831;SDS011;4452;50.756;4.472;2024-01-30T10:26:07;19.50;;;9.43;;
8831;SDS011;4452;50.756;4.472;2024-01-30T10:28:33;18.05;;;9.95;;
8831;SDS011;4452;50.756;4.472;2024-01-30T10:31:02;22.98;;;11.85;;
8831;SDS011;4452;50.756;4.472;2024-01-30T10:33:30;21.85;;;11.80;;
8831;SDS011;4452;50.756;4.472;2024-01-30T10:35:59;21.40;;;9.55;;
8831;SDS011;4452;50.756;4.472;2024-01-30T10:38:30;20.00;;;11.27;;
8831;SDS011;4452;50.756;4.472;2024-01-30T10:40:57;15.73;;;10.45;;
8831;SDS011;4452;50.756;4.472;2024-01-30T10:43:30;14.00;;;9.30;;
8831;SDS011;4452;50.756;4.472;2024-01-30T10:46:06;25.40;;;14.15;;
8831;SDS011;4452;50.756;4.472;2024-01-30T10:48:34;18.80;;;9.93;;
8831;SDS011;4452;50.756;4.472;2024-01-30T10:51:07;12.90;;;9.52;;
8831;SDS011;4452;50.756;4.472;2024-01-30T10:53:35;26.70;;;14.63;;
8831;SDS011;4452;50.756;4.472;2024-01-30T10:56:04;20.83;;;11.15;;
8831;SDS011;4452;50.756;4.472;2024-01-30T10:58:32;14.00;;;9.00;;
8831;SDS011;4452;50.756;4.472;2024-01-30T11:01:01;16.17;;;9.30;;
8831;SDS011;4452;50.756;4.472;2024-01-30T11:03:33;11.88;;;6.18;;
8831;SDS011;4452;50.756;4.472;2024-01-30T11:06:02;14.48;;;6.70;;
8831;SDS011;4452;50.756;4.472;2024-01-30T11:08:28;11.32;;;6.57;;
8831;SDS011;4452;50.756;4.472;2024-01-30T11:10:57;13.38;;;5.50;;
8831;SDS011;4452;50.756;4.472;2024-01-30T11:13:30;9.50;;;5.65;;
8831;SDS011;4452;50.756;4.472;2024-01-30T11:15:59;10.20;;;6.15;;
8831;SDS011;4452;50.756;4.472;2024-01-30T11:18:29;8.80;;;5.45;;
8831;SDS011;4452;50.756;4.472;2024-01-30T11:20:56;8.70;;;3.85;;
8831;SDS011;4452;50.756;4.472;2024-01-30T11:23:23;11.45;;;4.50;;
8831;SDS011;4452;50.756;4.472;2024-01-30T11:25:49;7.78;;;4.15;;
8831;SDS011;4452;50.756;4.472;2024-01-30T11:28:17;9.68;;;4.57;;
8831;SDS011;4452;50.756;4.472;2024-01-30T11:30:44;9.82;;;3.55;;
8831;SDS011;4452;50.756;4.472;2024-01-30T11:33:10;7.50;;;3.63;;
8831;SDS011;4452;50.756;4.472;2024-01-30T11:35:37;6.65;;;3.25;;
8831;SDS011;4452;50.756;4.472;2024-01-30T11:38:05;4.60;;;3.22;;
8831;SDS011;4452;50.756;4.472;2024-01-30T11:40:32;4.93;;;3.05;;
8831;SDS011;4452;50.756;4.472;2024-01-30T11:43:00;7.53;;;2.85;;
8831;SDS011;4452;50.756;4.472;2024-01-30T11:45:27;3.75;;;2.63;;
8831;SDS011;4452;50.756;4.472;2024-01-30T11:47:53;4.40;;;2.70;;
8831;SDS011;4452;50.756;4.472;2024-01-30T11:50:20;6.97;;;2.30;;
8831;SDS011;4452;50.756;4.472;2024-01-30T11:52:46;3.00;;;2.15;;
8831;SDS011;4452;50.756;4.472;2024-01-30T11:55:13;7.18;;;2.20;;
8831;SDS011;4452;50.756;4.472;2024-01-30T11:57:39;3.15;;;1.75;;
8831;SDS011;4452;50.756;4.472;2024-01-30T12:00:05;6.93;;;2.38;;
8831;SDS011;4452;50.756;4.472;2024-01-30T12:02:35;5.13;;;2.28;;
8831;SDS011;4452;50.756;4.472;2024-01-30T12:05:08;5.32;;;2.63;;
8831;SDS011;4452;50.756;4.472;2024-01-30T12:07:34;8.53;;;5.47;;
8831;SDS011;4452;50.756;4.472;2024-01-30T12:10:01;9.73;;;1.85;;
8831;SDS011;4452;50.756;4.472;2024-01-30T12:12:27;8.40;;;3.40;;
8831;SDS011;4452;50.756;4.472;2024-01-30T12:14:54;4.30;;;2.20;;
8831;SDS011;4452;50.756;4.472;2024-01-30T12:17:38;2.67;;;2.05;;
8831;SDS011;4452;50.756;4.472;2024-01-30T12:20:14;2.22;;;1.50;;
8831;SDS011;4452;50.756;4.472;2024-01-30T12:22:43;3.70;;;1.60;;
8831;SDS011;4452;50.756;4.472;2024-01-30T12:25:10;2.55;;;1.60;;
8831;SDS011;4452;50.756;4.472;2024-01-30T12:27:38;1.60;;;1.50;;
8831;SDS011;4452;50.756;4.472;2024-01-30T12:30:05;2.80;;;1.42;;
8831;SDS011;4452;50.756;4.472;2024-01-30T12:32:34;1.58;;;1.40;;
8831;SDS011;4452;50.756;4.472;2024-01-30T12:35:01;1.50;;;1.40;;
8831;SDS011;4452;50.756;4.472;2024-01-30T12:37:27;1.50;;;1.40;;
8831;SDS011;4452;50.756;4.472;2024-01-30T12:39:54;1.40;;;1.40;;
8831;SDS011;4452;50.756;4.472;2024-01-30T12:42:21;3.10;;;1.50;;
8831;SDS011;4452;50.756;4.472;2024-01-30T12:44:47;2.33;;;1.50;;
8831;SDS011;4452;50.756;4.472;2024-01-30T12:47:13;3.63;;;1.73;;
8831;SDS011;4452;50.756;4.472;2024-01-30T12:49:41;5.25;;;1.70;;
8831;SDS011;4452;50.756;4.472;2024-01-30T12:52:08;1.60;;;1.50;;
8831;SDS011;4452;50.756;4.472;2024-01-30T12:54:34;1.92;;;1.33;;
8831;SDS011;4452;50.756;4.472;2024-01-30T12:57:00;1.50;;;1.40;;
8831;SDS011;4452;50.756;4.472;2024-01-30T12:59:26;1.40;;;1.30;;
8831;SDS011;4452;50.756;4.472;2024-01-30T13:01:51;1.45;;;1.40;;
8831;SDS011;4452;50.756;4.472;2024-01-30T13:04:17;1.70;;;1.55;;
8831;SDS011;4452;50.756;4.472;2024-01-30T13:06:43;1.50;;;1.20;;
8831;SDS011;4452;50.756;4.472;2024-01-30T13:09:08;3.65;;;1.35;;
8831;SDS011;4452;50.756;4.472;2024-01-30T13:11:34;1.30;;;1.30;;
8831;SDS011;4452;50.756;4.472;2024-01-30T13:14:01;1.50;;;1.40;;
8831;SDS011;4452;50.756;4.472;2024-01-30T13:16:26;3.42;;;1.63;;
8831;SDS011;4452;50.756;4.472;2024-01-30T13:18:52;3.58;;;1.73;;
8831;SDS011;4452;50.756;4.472;2024-01-30T13:21:20;4.50;;;1.50;;
8831;SDS011;4452;50.756;4.472;2024-01-30T13:23:45;3.45;;;1.50;;
8831;SDS011;4452;50.756;4.472;2024-01-30T13:26:11;3.35;;;1.42;;
8831;SDS011;4452;50.756;4.472;2024-01-30T13:28:37;1.48;;;1.38;;
8831;SDS011;4452;50.756;4.472;2024-01-30T13:31:03;4.60;;;1.70;;
8831;SDS011;4452;50.756;4.472;2024-01-30T13:33:30;5.38;;;1.75;;
8831;SDS011;4452;50.756;4.472;2024-01-30T13:35:56;1.67;;;1.58;;
8831;SDS011;4452;50.756;4.472;2024-01-30T13:38:21;2.17;;;1.40;;
8831;SDS011;4452;50.756;4.472;2024-01-30T13:40:47;2.80;;;1.60;;
8831;SDS011;4452;50.756;4.472;2024-01-30T13:43:13;3.33;;;1.90;;
8831;SDS011;4452;50.756;4.472;2024-01-30T13:45:39;4.03;;;1.60;;
8831;SDS011;4452;50.756;4.472;2024-01-30T13:48:05;4.85;;;1.75;;
8831;SDS011;4452;50.756;4.472;2024-01-30T13:50:31;2.30;;;1.70;;
8831;SDS011;4452;50.756;4.472;2024-01-30T13:52:58;8.65;;;2.30;;
8831;SDS011;4452;50.756;4.472;2024-01-30T13:55:24;2.47;;;1.70;;
8831;SDS011;4452;50.756;4.472;2024-01-30T13:57:50;7.40;;;1.90;;
8831;SDS011;4452;50.756;4.472;2024-01-30T14:00:16;3.53;;;1.60;;
8831;SDS011;4452;50.756;4.472;2024-01-30T14:02:42;1.42;;;1.30;;
8831;SDS011;4452;50.756;4.472;2024-01-30T14:05:08;6.05;;;2.30;;
8831;SDS011;4452;50.756;4.472;2024-01-30T14:07:35;2.88;;;1.60;;
8831;SDS011;4452;50.756;4.472;2024-01-30T14:10:02;11.75;;;2.15;;
8831;SDS011;4452;50.756;4.472;2024-01-30T14:12:28;3.25;;;2.00;;
8831;SDS011;4452;50.756;4.472;2024-01-30T14:14:55;3.42;;;1.75;;
8831;SDS011;4452;50.756;4.472;2024-01-30T14:17:21;9.05;;;1.55;;
8831;SDS011;4452;50.756;4.472;2024-01-30T14:19:46;5.57;;;1.80;;
8831;SDS011;4452;50.756;4.472;2024-01-30T14:22:12;6.93;;;2.22;;
8831;SDS011;4452;50.756;4.472;2024-01-30T14:24:38;3.72;;;1.60;;
8831;SDS011;4452;50.756;4.472;2024-01-30T14:27:04;7.47;;;2.25;;
8831;SDS011;4452;50.756;4.472;2024-01-30T14:29:29;3.17;;;1.52;;
8831;SDS011;4452;50.756;4.472;2024-01-30T14:31:55;6.15;;;1.70;;
8831;SDS011;4452;50.756;4.472;2024-01-30T14:34:22;5.55;;;1.92;;
8831;SDS011;4452;50.756;4.472;2024-01-30T14:36:47;7.15;;;1.52;;
8831;SDS011;4452;50.756;4.472;2024-01-30T14:39:13;2.33;;;1.35;;
8831;SDS011;4452;50.756;4.472;2024-01-30T14:41:39;9.98;;;2.42;;
8831;SDS011;4452;50.756;4.472;2024-01-30T14:44:05;3.22;;;1.70;;
8831;SDS011;4452;50.756;4.472;2024-01-30T14:46:31;6.88;;;1.80;;
8831;SDS011;4452;50.756;4.472;2024-01-30T14:48:56;1.98;;;1.50;;
8831;SDS011;4452;50.756;4.472;2024-01-30T14:51:24;3.80;;;1.33;;
8831;SDS011;4452;50.756;4.472;2024-01-30T14:53:50;4.35;;;1.90;;
8831;SDS011;4452;50.756;4.472;2024-01-30T14:56:15;3.60;;;1.83;;
8831;SDS011;4452;50.756;4.472;2024-01-30T14:58:42;1.40;;;1.30;;
8831;SDS011;4452;50.756;4.472;2024-01-30T15:01:08;5.57;;;1.90;;
8831;SDS011;4452;50.756;4.472;2024-01-30T15:03:34;7.10;;;2.55;;
8831;SDS011;4452;50.756;4.472;2024-01-30T15:06:00;1.75;;;1.38;;
8831;SDS011;4452;50.756;4.472;2024-01-30T15:08:26;6.85;;;1.83;;